sensor_id;sensor_type;location;lat;lon;timestamp;pressure;altitude;pressure_sealevel;temperature;humidity
17615;BME280;8926;49.720;6.576;2022-09-21T00:01:42;100649.63;;;10.71;79.17
17615;BME280;8926;49.720;6.576;2022-09-21T00:04:07;100650.53;;;10.70;78.63
17615;BME280;8926;49.720;6.576;2022-09-21T00:06:33;100648.78;;;10.71;78.95
17615;BME280;8926;49.720;6.576;2022-09-21T00:08:58;100648.22;;;10.64;79.23
17615;BME280;8926;49.720;6.576;2022-09-21T00:11:26;100653.44;;;10.64;78.89
17615;BME280;8926;49.720;6.576;2022-09-21T00:14:05;100650.59;;;10.69;78.68
17615;BME280;8926;49.720;6.576;2022-09-21T00:16:31;100651.19;;;10.75;78.46
17615;BME280;8926;49.720;6.576;2022-09-21T00:18:57;100647.81;;;10.73;78.37
17615;BME280;8926;49.720;6.576;2022-09-21T00:21:23;100642.56;;;10.73;78.69
17615;BME280;8926;49.720;6.576;2022-09-21T00:23:48;100652.91;;;10.76;78.64
17615;BME280;8926;49.720;6.576;2022-09-21T00:26:16;100649.50;;;10.74;78.51
17615;BME280;8926;49.720;6.576;2022-09-21T00:28:42;100647.81;;;10.73;78.52
17615;BME280;8926;49.720;6.576;2022-09-21T00:31:10;100645.31;;;10.70;79.16
17615;BME280;8926;49.720;6.576;2022-09-21T00:33:36;100650.66;;;10.67;78.92
17615;BME280;8926;49.720;6.576;2022-09-21T00:36:07;100658.66;;;10.64;79.12
17615;BME280;8926;49.720;6.576;2022-09-21T00:38:34;100653.50;;;10.63;78.72
17615;BME280;8926;49.720;6.576;2022-09-21T00:40:59;100654.66;;;10.56;79.09
17615;BME280;8926;49.720;6.576;2022-09-21T00:43:25;100655.53;;;10.56;78.39
17615;BME280;8926;49.720;6.576;2022-09-21T00:45:58;100655.78;;;10.50;79.17
17615;BME280;8926;49.720;6.576;2022-09-21T00:48:25;100655.38;;;10.39;78.63
17615;BME280;8926;49.720;6.576;2022-09-21T00:50:53;100663.22;;;10.39;79.02
17615;BME280;8926;49.720;6.576;2022-09-21T00:53:20;100661.53;;;10.38;78.94
17615;BME280;8926;49.720;6.576;2022-09-21T00:55:50;100665.16;;;10.34;78.92
17615;BME280;8926;49.720;6.576;2022-09-21T00:58:22;100660.91;;;10.31;79.09
17615;BME280;8926;49.720;6.576;2022-09-21T01:00:50;100663.47;;;10.33;79.21
17615;BME280;8926;49.720;6.576;2022-09-21T01:03:16;100664.31;;;10.33;78.79
17615;BME280;8926;49.720;6.576;2022-09-21T01:05:41;100660.91;;;10.31;78.82
17615;BME280;8926;49.720;6.576;2022-09-21T01:08:08;100664.63;;;10.26;78.79
17615;BME280;8926;49.720;6.576;2022-09-21T01:11:04;100658.53;;;10.25;78.74
17615;BME280;8926;49.720;6.576;2022-09-21T01:13:46;100656.53;;;10.32;78.66
17615;BME280;8926;49.720;6.576;2022-09-21T01:16:23;100660.72;;;10.36;78.52
17615;BME280;8926;49.720;6.576;2022-09-21T01:19:00;100659.81;;;10.37;78.34
17615;BME280;8926;49.720;6.576;2022-09-21T01:21:32;100660.66;;;10.37;78.57
17615;BME280;8926;49.720;6.576;2022-09-21T01:24:17;100658.38;;;10.30;78.64
17615;BME280;8926;49.720;6.576;2022-09-21T01:27:06;100655.28;;;10.18;78.30
17615;BME280;8926;49.720;6.576;2022-09-21T01:29:45;100656.22;;;10.17;78.79
17615;BME280;8926;49.720;6.576;2022-09-21T01:32:47;100660.78;;;10.12;78.96
17615;BME280;8926;49.720;6.576;2022-09-21T01:35:40;100662.72;;;10.07;79.07
17615;BME280;8926;49.720;6.576;2022-09-21T01:38:12;100657.63;;;10.04;79.27
17615;BME280;8926;49.720;6.576;2022-09-21T01:40:42;100661.16;;;10.03;79.13
17615;BME280;8926;49.720;6.576;2022-09-21T01:43:12;100656.84;;;10.02;79.67
17615;BME280;8926;49.720;6.576;2022-09-21T01:45:44;100666.38;;;10.03;79.49
17615;BME280;8926;49.720;6.576;2022-09-21T01:48:12;100655.00;;;10.04;79.73
17615;BME280;8926;49.720;6.576;2022-09-21T01:50:44;100657.75;;;10.01;79.37
17615;BME280;8926;49.720;6.576;2022-09-21T01:53:48;100660.53;;;9.97;79.35
17615;BME280;8926;49.720;6.576;2022-09-21T01:56:13;100663.19;;;9.95;80.06
17615;BME280;8926;49.720;6.576;2022-09-21T01:58:47;100660.59;;;9.95;79.84
17615;BME280;8926;49.720;6.576;2022-09-21T02:01:17;100657.13;;;9.95;80.29
17615;BME280;8926;49.720;6.576;2022-09-21T02:03:49;100659.69;;;9.96;80.25
17615;BME280;8926;49.720;6.576;2022-09-21T02:06:16;100656.94;;;9.99;80.12
17615;BME280;8926;49.720;6.576;2022-09-21T02:08:43;100656.88;;;10.01;80.35
17615;BME280;8926;49.720;6.576;2022-09-21T02:11:09;100668.06;;;10.04;80.29
17615;BME280;8926;49.720;6.576;2022-09-21T02:13:39;100666.25;;;10.06;79.45
17615;BME280;8926;49.720;6.576;2022-09-21T02:21:45;100658.19;;;10.12;81.00
17615;BME280;8926;49.720;6.576;2022-09-21T02:24:26;100662.25;;;10.19;80.38
17615;BME280;8926;49.720;6.576;2022-09-21T02:29:36;100653.13;;;10.30;80.59
17615;BME280;8926;49.720;6.576;2022-09-21T02:43:29;100649.88;;;10.25;80.68
17615;BME280;8926;49.720;6.576;2022-09-21T02:45:59;100646.47;;;10.23;80.86
17615;BME280;8926;49.720;6.576;2022-09-21T02:48:33;100647.53;;;10.17;80.67
17615;BME280;8926;49.720;6.576;2022-09-21T02:51:13;100650.13;;;10.17;80.79
17615;BME280;8926;49.720;6.576;2022-09-21T02:53:41;100650.03;;;10.20;80.13
17615;BME280;8926;49.720;6.576;2022-09-21T02:56:08;100645.81;;;10.16;81.14
17615;BME280;8926;49.720;6.576;2022-09-21T02:58:39;100641.56;;;10.13;80.93
17615;BME280;8926;49.720;6.576;2022-09-21T03:01:08;100650.34;;;10.12;81.10
17615;BME280;8926;49.720;6.576;2022-09-21T03:03:34;100649.50;;;10.12;80.71
17615;BME280;8926;49.720;6.576;2022-09-21T03:06:00;100656.22;;;10.17;80.99
17615;BME280;8926;49.720;6.576;2022-09-21T03:08:26;100651.88;;;10.16;80.74
17615;BME280;8926;49.720;6.576;2022-09-21T03:10:51;100651.19;;;10.13;80.33
17615;BME280;8926;49.720;6.576;2022-09-21T03:13:17;100655.91;;;10.03;79.32
17615;BME280;8926;49.720;6.576;2022-09-21T03:15:43;100650.16;;;9.95;79.25
17615;BME280;8926;49.720;6.576;2022-09-21T03:18:10;100648.63;;;9.90;78.76
17615;BME280;8926;49.720;6.576;2022-09-21T03:20:37;100645.38;;;9.84;78.74
17615;BME280;8926;49.720;6.576;2022-09-21T03:23:03;100647.91;;;9.86;79.69
17615;BME280;8926;49.720;6.576;2022-09-21T03:25:29;100651.28;;;9.88;79.24
17615;BME280;8926;49.720;6.576;2022-09-21T03:27:55;100661.63;;;9.91;79.57
17615;BME280;8926;49.720;6.576;2022-09-21T03:30:22;100648.78;;;9.86;79.50
17615;BME280;8926;49.720;6.576;2022-09-21T03:32:52;100650.19;;;9.72;79.62
17615;BME280;8926;49.720;6.576;2022-09-21T03:35:18;100648.56;;;9.69;79.45
17615;BME280;8926;49.720;6.576;2022-09-21T03:37:46;100657.34;;;9.67;79.53
17615;BME280;8926;49.720;6.576;2022-09-21T03:40:11;100659.06;;;9.68;79.40
17615;BME280;8926;49.720;6.576;2022-09-21T03:42:39;100660.75;;;9.69;80.19
17615;BME280;8926;49.720;6.576;2022-09-21T03:45:05;100663.47;;;9.66;80.19
17615;BME280;8926;49.720;6.576;2022-09-21T03:47:30;100662.63;;;9.65;80.47
17615;BME280;8926;49.720;6.576;2022-09-21T03:49:56;100661.72;;;9.66;80.96
17615;BME280;8926;49.720;6.576;2022-09-21T03:52:21;100659.06;;;9.68;80.46
17615;BME280;8926;49.720;6.576;2022-09-21T03:54:47;100661.78;;;9.65;80.86
17615;BME280;8926;49.720;6.576;2022-09-21T03:57:12;100667.91;;;9.64;80.67
17615;BME280;8926;49.720;6.576;2022-09-21T03:59:37;100665.22;;;9.65;80.61
17615;BME280;8926;49.720;6.576;2022-09-21T04:02:03;100663.53;;;9.64;81.11
17615;BME280;8926;49.720;6.576;2022-09-21T04:04:28;100662.81;;;9.61;81.96
17615;BME280;8926;49.720;6.576;2022-09-21T04:06:53;100659.28;;;9.62;82.00
17615;BME280;8926;49.720;6.576;2022-09-21T04:09:19;100661.25;;;9.57;81.94
17615;BME280;8926;49.720;6.576;2022-09-21T04:11:44;100658.78;;;9.52;81.86
17615;BME280;8926;49.720;6.576;2022-09-21T04:14:11;100664.00;;;9.52;82.74
17615;BME280;8926;49.720;6.576;2022-09-21T04:16:37;100674.38;;;9.53;82.67
17615;BME280;8926;49.720;6.576;2022-09-21T04:19:02;100669.13;;;9.55;82.54
17615;BME280;8926;49.720;6.576;2022-09-21T04:21:27;100670.75;;;9.58;82.75
17615;BME280;8926;49.720;6.576;2022-09-21T04:23:52;100674.94;;;9.62;82.55
17615;BME280;8926;49.720;6.576;2022-09-21T04:26:22;100668.03;;;9.61;82.37
17615;BME280;8926;49.720;6.576;2022-09-21T04:28:48;100674.94;;;9.62;82.04
17615;BME280;8926;49.720;6.576;2022-09-21T04:31:14;100675.72;;;9.64;82.61
17615;BME280;8926;49.720;6.576;2022-09-21T04:33:39;100678.22;;;9.67;81.20
17615;BME280;8926;49.720;6.576;2022-09-21T04:36:05;100676.53;;;9.66;81.60
17615;BME280;8926;49.720;6.576;2022-09-21T04:38:31;100676.41;;;9.69;80.87
17615;BME280;8926;49.720;6.576;2022-09-21T04:40:57;100673.00;;;9.67;80.45
17615;BME280;8926;49.720;6.576;2022-09-21T04:43:22;100690.47;;;9.65;81.26
17615;BME280;8926;49.720;6.576;2022-09-21T04:45:48;100680.03;;;9.65;81.26
17615;BME280;8926;49.720;6.576;2022-09-21T04:48:13;100678.22;;;9.67;80.75
17615;BME280;8926;49.720;6.576;2022-09-21T04:50:38;100678.34;;;9.64;80.95
17615;BME280;8926;49.720;6.576;2022-09-21T04:53:04;100684.34;;;9.66;80.97
17615;BME280;8926;49.720;6.576;2022-09-21T04:55:30;100680.28;;;9.59;80.52
17615;BME280;8926;49.720;6.576;2022-09-21T04:57:55;100683.00;;;9.56;80.95
17615;BME280;8926;49.720;6.576;2022-09-21T05:00:20;100684.66;;;9.58;81.36
17615;BME280;8926;49.720;6.576;2022-09-21T05:02:46;100689.03;;;9.58;81.04
17615;BME280;8926;49.720;6.576;2022-09-21T05:05:11;100691.69;;;9.56;81.01
17615;BME280;8926;49.720;6.576;2022-09-21T05:07:37;100692.44;;;9.60;81.67
17615;BME280;8926;49.720;6.576;2022-09-21T05:10:03;100693.97;;;9.64;81.44
17615;BME280;8926;49.720;6.576;2022-09-21T05:12:30;100696.66;;;9.62;81.14
17615;BME280;8926;49.720;6.576;2022-09-21T05:14:55;100696.75;;;9.61;80.42
17615;BME280;8926;49.720;6.576;2022-09-21T05:17:21;100692.53;;;9.57;80.63
17615;BME280;8926;49.720;6.576;2022-09-21T05:19:48;100697.88;;;9.53;80.42
17615;BME280;8926;49.720;6.576;2022-09-21T05:22:13;100694.47;;;9.51;81.15
17615;BME280;8926;49.720;6.576;2022-09-21T05:24:38;100705.00;;;9.48;80.71
17615;BME280;8926;49.720;6.576;2022-09-21T05:27:04;100699.03;;;9.45;80.07
17615;BME280;8926;49.720;6.576;2022-09-21T05:29:29;100708.69;;;9.43;80.62
17615;BME280;8926;49.720;6.576;2022-09-21T05:34:35;100712.25;;;9.40;81.38
17615;BME280;8926;49.720;6.576;2022-09-21T05:40:08;100717.56;;;9.37;81.38
17615;BME280;8926;49.720;6.576;2022-09-21T05:42:34;100715.88;;;9.36;80.53
17615;BME280;8926;49.720;6.576;2022-09-21T05:45:00;100714.31;;;9.32;80.93
17615;BME280;8926;49.720;6.576;2022-09-21T05:47:38;100730.91;;;9.30;80.95
17615;BME280;8926;49.720;6.576;2022-09-21T05:53:04;100732.06;;;9.21;80.80
17615;BME280;8926;49.720;6.576;2022-09-21T05:55:58;100731.28;;;9.19;82.46
17615;BME280;8926;49.720;6.576;2022-09-21T06:03:40;100727.34;;;9.32;81.63
17615;BME280;8926;49.720;6.576;2022-09-21T06:06:07;100730.06;;;9.29;82.62
17615;BME280;8926;49.720;6.576;2022-09-21T06:08:32;100731.88;;;9.27;82.08
17615;BME280;8926;49.720;6.576;2022-09-21T06:10:57;100730.91;;;9.30;81.38
17615;BME280;8926;49.720;6.576;2022-09-21T06:13:23;100738.78;;;9.28;81.46
17615;BME280;8926;49.720;6.576;2022-09-21T06:15:48;100744.91;;;9.27;82.63
17615;BME280;8926;49.720;6.576;2022-09-21T06:18:13;100739.69;;;9.27;82.88
17615;BME280;8926;49.720;6.576;2022-09-21T06:20:39;100741.28;;;9.31;83.47
17615;BME280;8926;49.720;6.576;2022-09-21T06:23:07;100748.09;;;9.35;82.27
17615;BME280;8926;49.720;6.576;2022-09-21T06:25:32;100744.44;;;9.39;82.35
17615;BME280;8926;49.720;6.576;2022-09-21T06:28:05;100743.59;;;9.39;82.31
17615;BME280;8926;49.720;6.576;2022-09-21T06:30:32;100741.94;;;9.36;82.85
17615;BME280;8926;49.720;6.576;2022-09-21T06:32:59;100740.94;;;9.40;82.19
17615;BME280;8926;49.720;6.576;2022-09-21T06:35:26;100748.75;;;9.40;82.94
17615;BME280;8926;49.720;6.576;2022-09-21T06:37:56;100751.16;;;9.46;82.31
17615;BME280;8926;49.720;6.576;2022-09-21T06:40:21;100746.75;;;9.48;82.61
17615;BME280;8926;49.720;6.576;2022-09-21T06:42:47;100743.13;;;9.52;82.53
17615;BME280;8926;49.720;6.576;2022-09-21T06:45:12;100748.16;;;9.57;81.81
17615;BME280;8926;49.720;6.576;2022-09-21T06:47:37;100745.56;;;9.57;81.65
17615;BME280;8926;49.720;6.576;2022-09-21T06:50:03;100741.19;;;9.58;82.12
17615;BME280;8926;49.720;6.576;2022-09-21T06:52:28;100747.00;;;9.64;82.69
17615;BME280;8926;49.720;6.576;2022-09-21T06:54:53;100747.75;;;9.68;82.22
17615;BME280;8926;49.720;6.576;2022-09-21T06:57:19;100741.56;;;9.70;82.60
17615;BME280;8926;49.720;6.576;2022-09-21T06:59:44;100749.47;;;9.69;82.09
17615;BME280;8926;49.720;6.576;2022-09-21T07:02:09;100746.84;;;9.69;82.83
17615;BME280;8926;49.720;6.576;2022-09-21T07:04:36;100747.53;;;9.74;81.60
17615;BME280;8926;49.720;6.576;2022-09-21T07:07:02;100738.91;;;9.72;81.44
17615;BME280;8926;49.720;6.576;2022-09-21T07:09:27;100750.31;;;9.69;81.81
17615;BME280;8926;49.720;6.576;2022-09-21T07:11:52;100751.06;;;9.73;81.69
17615;BME280;8926;49.720;6.576;2022-09-21T07:14:18;100741.47;;;9.73;81.40
17615;BME280;8926;49.720;6.576;2022-09-21T07:16:44;100754.34;;;9.78;82.12
17615;BME280;8926;49.720;6.576;2022-09-21T07:19:10;100747.22;;;9.83;81.82
17615;BME280;8926;49.720;6.576;2022-09-21T07:21:35;100748.78;;;9.87;82.04
17615;BME280;8926;49.720;6.576;2022-09-21T07:24:00;100752.91;;;9.93;82.55
17615;BME280;8926;49.720;6.576;2022-09-21T07:26:26;100757.06;;;9.98;81.47
17615;BME280;8926;49.720;6.576;2022-09-21T07:28:51;100754.50;;;9.97;81.78
17615;BME280;8926;49.720;6.576;2022-09-21T07:31:16;100758.66;;;10.02;82.17
17615;BME280;8926;49.720;6.576;2022-09-21T07:33:43;100755.63;;;10.13;81.72
17615;BME280;8926;49.720;6.576;2022-09-21T07:36:10;100752.72;;;10.20;81.90
17615;BME280;8926;49.720;6.576;2022-09-21T07:38:38;100750.56;;;10.32;80.91
17615;BME280;8926;49.720;6.576;2022-09-21T07:41:05;100746.81;;;10.39;80.29
17615;BME280;8926;49.720;6.576;2022-09-21T07:43:31;100745.22;;;10.35;80.81
17615;BME280;8926;49.720;6.576;2022-09-21T07:45:57;100752.03;;;10.39;80.34
17615;BME280;8926;49.720;6.576;2022-09-21T07:48:23;100748.47;;;10.40;80.49
17615;BME280;8926;49.720;6.576;2022-09-21T07:50:49;100744.72;;;10.47;80.90
17615;BME280;8926;49.720;6.576;2022-09-21T07:53:15;100747.88;;;10.55;80.36
17615;BME280;8926;49.720;6.576;2022-09-21T07:55:41;100744.91;;;10.64;80.25
17615;BME280;8926;49.720;6.576;2022-09-21T07:58:06;100740.19;;;10.72;79.96
17615;BME280;8926;49.720;6.576;2022-09-21T08:00:50;100746.88;;;10.79;79.31
17615;BME280;8926;49.720;6.576;2022-09-21T08:03:16;100745.53;;;10.91;79.67
17615;BME280;8926;49.720;6.576;2022-09-21T08:05:41;100740.59;;;11.04;79.02
17615;BME280;8926;49.720;6.576;2022-09-21T08:08:06;100745.59;;;11.10;78.23
17615;BME280;8926;49.720;6.576;2022-09-21T08:10:33;100737.38;;;11.17;78.11
17615;BME280;8926;49.720;6.576;2022-09-21T08:12:59;100739.59;;;11.27;77.99
17615;BME280;8926;49.720;6.576;2022-09-21T08:15:25;100739.53;;;11.28;77.33
17615;BME280;8926;49.720;6.576;2022-09-21T08:17:52;100747.25;;;11.31;77.52
17615;BME280;8926;49.720;6.576;2022-09-21T08:20:17;100730.09;;;11.44;77.94
17615;BME280;8926;49.720;6.576;2022-09-21T08:22:42;100732.09;;;11.58;77.01
17615;BME280;8926;49.720;6.576;2022-09-21T08:25:08;100736.22;;;11.64;76.43
17615;BME280;8926;49.720;6.576;2022-09-21T08:27:35;100727.16;;;11.71;76.43
17615;BME280;8926;49.720;6.576;2022-09-21T08:30:00;100736.25;;;11.82;75.63
17615;BME280;8926;49.720;6.576;2022-09-21T08:32:27;100738.53;;;11.90;75.39
17615;BME280;8926;49.720;6.576;2022-09-21T08:34:52;100737.72;;;12.07;75.44
17615;BME280;8926;49.720;6.576;2022-09-21T08:37:18;100734.47;;;12.20;74.82
17615;BME280;8926;49.720;6.576;2022-09-21T08:39:46;100732.59;;;12.41;74.72
17615;BME280;8926;49.720;6.576;2022-09-21T08:44:52;100738.41;;;12.65;74.03
17615;BME280;8926;49.720;6.576;2022-09-21T08:47:26;100737.63;;;12.80;72.63
17615;BME280;8926;49.720;6.576;2022-09-21T08:49:56;100728.25;;;12.94;71.66
17615;BME280;8926;49.720;6.576;2022-09-21T08:52:23;100728.91;;;13.14;71.97
17615;BME280;8926;49.720;6.576;2022-09-21T08:54:55;100725.56;;;13.45;70.65
17615;BME280;8926;49.720;6.576;2022-09-21T08:57:27;100727.28;;;13.78;69.57
17615;BME280;8926;49.720;6.576;2022-09-21T08:59:53;100719.94;;;14.16;69.20
17615;BME280;8926;49.720;6.576;2022-09-21T09:02:58;100722.69;;;14.60;66.34
17615;BME280;8926;49.720;6.576;2022-09-21T09:05:44;100716.47;;;15.21;65.64
17615;BME280;8926;49.720;6.576;2022-09-21T09:18:51;100703.75;;;17.05;59.20
17615;BME280;8926;49.720;6.576;2022-09-21T09:24:20;100686.84;;;17.33;58.75
17615;BME280;8926;49.720;6.576;2022-09-21T09:26:54;100679.41;;;17.50;57.91
17615;BME280;8926;49.720;6.576;2022-09-21T09:29:47;100673.69;;;17.82;56.24
17615;BME280;8926;49.720;6.576;2022-09-21T09:32:16;100683.41;;;17.81;56.80
17615;BME280;8926;49.720;6.576;2022-09-21T09:34:47;100674.25;;;17.98;55.90
17615;BME280;8926;49.720;6.576;2022-09-21T09:37:16;100681.44;;;18.20;57.53
17615;BME280;8926;49.720;6.576;2022-09-21T09:39:42;100680.66;;;18.30;54.41
17615;BME280;8926;49.720;6.576;2022-09-21T09:42:14;100672.91;;;18.64;56.74
17615;BME280;8926;49.720;6.576;2022-09-21T09:52:26;100661.94;;;19.15;52.89
17615;BME280;8926;49.720;6.576;2022-09-21T09:54:52;100655.78;;;19.48;54.28
17615;BME280;8926;49.720;6.576;2022-09-21T09:57:26;100649.84;;;19.78;52.73
17615;BME280;8926;49.720;6.576;2022-09-21T09:59:54;100648.28;;;19.86;51.72
17615;BME280;8926;49.720;6.576;2022-09-21T10:02:25;100648.50;;;19.94;51.68
17615;BME280;8926;49.720;6.576;2022-09-21T10:04:54;100643.50;;;20.12;51.93
17615;BME280;8926;49.720;6.576;2022-09-21T10:07:33;100631.09;;;20.33;52.65
17615;BME280;8926;49.720;6.576;2022-09-21T10:09:58;100630.47;;;20.52;53.21
17615;BME280;8926;49.720;6.576;2022-09-21T10:12:24;100631.56;;;20.50;52.35
17615;BME280;8926;49.720;6.576;2022-09-21T10:14:53;100626.28;;;20.59;51.30
17615;BME280;8926;49.720;6.576;2022-09-21T10:17:23;100622.22;;;20.76;50.80
17615;BME280;8926;49.720;6.576;2022-09-21T10:20:00;100620.81;;;21.03;50.26
17615;BME280;8926;49.720;6.576;2022-09-21T10:22:27;100615.91;;;20.98;48.39
17615;BME280;8926;49.720;6.576;2022-09-21T10:24:53;100612.56;;;21.06;50.30
17615;BME280;8926;49.720;6.576;2022-09-21T10:27:42;100617.47;;;21.31;48.46
17615;BME280;8926;49.720;6.576;2022-09-21T10:30:35;100620.41;;;21.28;46.34
17615;BME280;8926;49.720;6.576;2022-09-21T10:33:03;100612.00;;;21.32;48.92
17615;BME280;8926;49.720;6.576;2022-09-21T10:35:28;100613.56;;;21.35;47.11
17615;BME280;8926;49.720;6.576;2022-09-21T10:38:15;100605.75;;;21.43;49.21
17615;BME280;8926;49.720;6.576;2022-09-21T10:40:42;100604.59;;;21.36;46.95
17615;BME280;8926;49.720;6.576;2022-09-21T10:43:21;100600.47;;;21.53;47.35
17615;BME280;8926;49.720;6.576;2022-09-21T10:45:53;100603.31;;;21.71;47.58
17615;BME280;8926;49.720;6.576;2022-09-21T10:48:21;100596.88;;;21.83;48.16
17615;BME280;8926;49.720;6.576;2022-09-21T10:50:49;100594.50;;;21.80;47.50
17615;BME280;8926;49.720;6.576;2022-09-21T10:53:25;100587.50;;;21.79;47.26
17615;BME280;8926;49.720;6.576;2022-09-21T10:56:13;100586.38;;;21.81;46.54
17615;BME280;8926;49.720;6.576;2022-09-21T10:59:24;100585.13;;;21.76;45.33
17615;BME280;8926;49.720;6.576;2022-09-21T11:01:52;100590.44;;;21.85;46.15
17615;BME280;8926;49.720;6.576;2022-09-21T11:07:07;100589.03;;;21.91;45.89
17615;BME280;8926;49.720;6.576;2022-09-21T11:09:38;100585.41;;;21.82;45.80
17615;BME280;8926;49.720;6.576;2022-09-21T11:12:32;100583.72;;;21.72;44.42
17615;BME280;8926;49.720;6.576;2022-09-21T11:15:02;100584.00;;;21.78;45.13
17615;BME280;8926;49.720;6.576;2022-09-21T11:20:48;100584.00;;;21.78;43.94
17615;BME280;8926;49.720;6.576;2022-09-21T11:26:22;100580.66;;;22.15;44.77
17615;BME280;8926;49.720;6.576;2022-09-21T11:29:17;100573.41;;;22.07;42.77
17615;BME280;8926;49.720;6.576;2022-09-21T11:39:52;100567.66;;;21.23;43.49
17615;BME280;8926;49.720;6.576;2022-09-21T11:42:45;100559.59;;;21.44;43.79
17615;BME280;8926;49.720;6.576;2022-09-21T12:07:19;100540.03;;;21.84;42.92
17615;BME280;8926;49.720;6.576;2022-09-21T12:10:03;100537.38;;;21.74;43.15
17615;BME280;8926;49.720;6.576;2022-09-21T12:13:18;100546.19;;;21.55;43.28
17615;BME280;8926;49.720;6.576;2022-09-21T12:18:17;100534.69;;;21.64;42.85
17615;BME280;8926;49.720;6.576;2022-09-21T12:20:55;100527.31;;;21.78;42.18
17615;BME280;8926;49.720;6.576;2022-09-21T12:23:43;100528.81;;;21.71;43.06
17615;BME280;8926;49.720;6.576;2022-09-21T12:26:18;100537.78;;;21.70;41.43
17615;BME280;8926;49.720;6.576;2022-09-21T12:28:51;100524.50;;;21.70;42.02
17615;BME280;8926;49.720;6.576;2022-09-21T12:31:22;100526.03;;;21.82;42.93
17615;BME280;8926;49.720;6.576;2022-09-21T12:33:57;100526.31;;;21.79;41.97
17615;BME280;8926;49.720;6.576;2022-09-21T12:36:38;100520.44;;;21.75;42.34
17615;BME280;8926;49.720;6.576;2022-09-21T12:39:22;100529.09;;;21.58;42.07
17615;BME280;8926;49.720;6.576;2022-09-21T12:41:55;100523.03;;;21.37;41.38
17615;BME280;8926;49.720;6.576;2022-09-21T12:44:42;100517.84;;;21.35;41.06
17615;BME280;8926;49.720;6.576;2022-09-21T12:47:40;100516.44;;;21.31;40.12
17615;BME280;8926;49.720;6.576;2022-09-21T12:50:18;100512.28;;;21.38;39.89
17615;BME280;8926;49.720;6.576;2022-09-21T12:52:45;100510.59;;;21.37;39.51
17615;BME280;8926;49.720;6.576;2022-09-21T12:55:32;100511.91;;;21.03;38.46
17615;BME280;8926;49.720;6.576;2022-09-21T13:01:00;100503.63;;;21.06;39.32
17615;BME280;8926;49.720;6.576;2022-09-21T13:03:34;100494.41;;;21.10;38.68
17615;BME280;8926;49.720;6.576;2022-09-21T13:08:51;100502.13;;;21.13;40.65
17615;BME280;8926;49.720;6.576;2022-09-21T13:11:19;100496.22;;;21.09;40.49
17615;BME280;8926;49.720;6.576;2022-09-21T13:13:53;100492.59;;;21.00;40.90
17615;BME280;8926;49.720;6.576;2022-09-21T13:18:58;100484.19;;;20.95;41.11
17615;BME280;8926;49.720;6.576;2022-09-21T13:21:26;100488.66;;;20.95;41.08
17615;BME280;8926;49.720;6.576;2022-09-21T13:24:01;100483.88;;;20.89;40.19
17615;BME280;8926;49.720;6.576;2022-09-21T13:26:42;100488.28;;;20.69;40.13
17615;BME280;8926;49.720;6.576;2022-09-21T13:39:35;100479.50;;;20.06;42.11
17615;BME280;8926;49.720;6.576;2022-09-21T13:47:41;100476.56;;;19.99;40.11
17615;BME280;8926;49.720;6.576;2022-09-21T13:50:11;100470.53;;;19.97;39.83
17615;BME280;8926;49.720;6.576;2022-09-21T13:52:42;100475.44;;;19.81;39.25
17615;BME280;8926;49.720;6.576;2022-09-21T13:55:47;100470.28;;;20.01;40.39
17615;BME280;8926;49.720;6.576;2022-09-21T13:58:26;100470.00;;;20.24;41.05
17615;BME280;8926;49.720;6.576;2022-09-21T14:00:57;100466.72;;;20.11;40.84
17615;BME280;8926;49.720;6.576;2022-09-21T14:03:33;100476.47;;;19.90;42.00
17615;BME280;8926;49.720;6.576;2022-09-21T14:06:17;100475.38;;;19.72;42.06
17615;BME280;8926;49.720;6.576;2022-09-21T14:08:55;100466.75;;;19.58;42.10
17615;BME280;8926;49.720;6.576;2022-09-21T14:14:31;100476.69;;;19.34;43.46
17615;BME280;8926;49.720;6.576;2022-09-21T14:17:01;100474.03;;;19.23;43.39
17615;BME280;8926;49.720;6.576;2022-09-21T14:24:40;100467.34;;;19.08;43.96
17615;BME280;8926;49.720;6.576;2022-09-21T14:29:57;100463.63;;;18.99;44.92
17615;BME280;8926;49.720;6.576;2022-09-21T14:32:26;100465.72;;;18.95;45.79
17615;BME280;8926;49.720;6.576;2022-09-21T14:35:16;100466.19;;;18.89;45.49
17615;BME280;8926;49.720;6.576;2022-09-21T14:37:49;100470.03;;;18.85;45.70
17615;BME280;8926;49.720;6.576;2022-09-21T14:40:29;100458.72;;;18.94;45.44
17615;BME280;8926;49.720;6.576;2022-09-21T14:42:57;100455.78;;;19.09;45.65
17615;BME280;8926;49.720;6.576;2022-09-21T14:54:36;100445.50;;;18.72;44.34
17615;BME280;8926;49.720;6.576;2022-09-21T15:00:20;100440.63;;;18.99;45.04
17615;BME280;8926;49.720;6.576;2022-09-21T15:05:40;100429.06;;;19.12;44.31
17615;BME280;8926;49.720;6.576;2022-09-21T15:08:37;100439.66;;;19.12;44.89
17615;BME280;8926;49.720;6.576;2022-09-21T15:11:37;100431.25;;;19.07;44.34
17615;BME280;8926;49.720;6.576;2022-09-21T15:14:20;100428.13;;;19.02;43.75
17615;BME280;8926;49.720;6.576;2022-09-21T15:16:48;100422.56;;;19.05;44.20
17615;BME280;8926;49.720;6.576;2022-09-21T15:19:25;100428.84;;;19.04;43.94
17615;BME280;8926;49.720;6.576;2022-09-21T15:21:53;100426.44;;;19.01;44.52
17615;BME280;8926;49.720;6.576;2022-09-21T15:24:31;100432.25;;;18.94;43.87
17615;BME280;8926;49.720;6.576;2022-09-21T15:27:13;100429.72;;;18.93;43.88
17615;BME280;8926;49.720;6.576;2022-09-21T15:29:43;100425.50;;;18.90;43.42
17615;BME280;8926;49.720;6.576;2022-09-21T15:32:24;100422.13;;;18.88;43.69
17615;BME280;8926;49.720;6.576;2022-09-21T15:34:59;100423.22;;;18.86;44.89
17615;BME280;8926;49.720;6.576;2022-09-21T15:37:28;100420.69;;;18.73;44.13
17615;BME280;8926;49.720;6.576;2022-09-21T15:40:04;100425.19;;;18.61;43.89
17615;BME280;8926;49.720;6.576;2022-09-21T15:42:30;100420.94;;;18.59;44.70
17615;BME280;8926;49.720;6.576;2022-09-21T15:45:16;100415.63;;;18.48;44.35
17615;BME280;8926;49.720;6.576;2022-09-21T15:47:42;100406.28;;;18.44;44.87
17615;BME280;8926;49.720;6.576;2022-09-21T15:50:13;100414.81;;;18.36;45.32
17615;BME280;8926;49.720;6.576;2022-09-21T15:52:52;100414.44;;;18.29;45.36